createdAt,value
2023-01-31T00:02:16.828Z,97380.03
2023-01-31T00:04:43.523Z,97371.06
2023-01-31T00:07:10.164Z,97362.34
2023-01-31T00:09:37.332Z,97364.44
2023-01-31T00:12:04.073Z,97374.13
2023-01-31T00:14:30.819Z,97368.84
2023-01-31T00:16:57.433Z,97367.47
2023-01-31T00:19:24.106Z,97374.00
2023-01-31T00:21:50.758Z,97368.47
2023-01-31T00:24:17.472Z,97376.41
2023-01-31T00:26:44.192Z,97392.63
2023-01-31T00:29:10.822Z,97406.00
2023-01-31T00:31:37.891Z,97404.78
2023-01-31T00:34:05.325Z,97389.53
2023-01-31T00:36:32.016Z,97398.75
2023-01-31T00:38:58.641Z,97410.28
2023-01-31T00:41:25.334Z,97409.09
2023-01-31T00:43:51.989Z,97411.41
2023-01-31T00:46:18.711Z,97412.97
2023-01-31T00:48:45.358Z,97420.88
2023-01-31T00:51:12.021Z,97422.84
2023-01-31T00:53:38.639Z,97436.22
2023-01-31T00:56:05.407Z,97424.16
2023-01-31T00:58:32.035Z,97435.31
2023-01-31T01:00:58.739Z,97456.97
2023-01-31T01:03:25.413Z,97444.94
2023-01-31T01:05:52.093Z,97448.59
2023-01-31T01:08:18.715Z,97461.88
2023-01-31T01:10:45.722Z,97460.31
2023-01-31T01:13:12.416Z,97443.88
2023-01-31T01:15:39.057Z,97450.41
2023-01-31T01:18:05.736Z,97461.59
2023-01-31T01:20:32.427Z,97459.22
2023-01-31T01:22:59.125Z,97455.91
2023-01-31T01:25:25.807Z,97469.41
2023-01-31T01:27:52.463Z,97477.53
2023-01-31T01:30:19.201Z,97475.44
2023-01-31T01:32:45.861Z,97468.38
2023-01-31T01:35:12.471Z,97475.25
2023-01-31T01:37:39.155Z,97482.44
2023-01-31T01:40:05.974Z,97493.44
2023-01-31T01:42:33.136Z,97490.84
2023-01-31T01:44:59.877Z,97469.97
2023-01-31T01:47:26.586Z,97466.38
2023-01-31T01:49:53.199Z,97469.84
2023-01-31T01:52:19.827Z,97477.81
2023-01-31T01:54:46.563Z,97477.84
2023-01-31T01:57:13.246Z,97472.31
2023-01-31T01:59:39.849Z,97489.59
2023-01-31T02:02:06.447Z,97479.47
2023-01-31T02:04:33.127Z,97474.00
2023-01-31T02:06:59.744Z,97494.72
2023-01-31T02:09:26.580Z,97494.50
2023-01-31T02:11:53.183Z,97483.59
2023-01-31T02:14:19.890Z,97499.47
2023-01-31T02:16:48.515Z,97498.63
2023-01-31T02:19:15.184Z,97492.72
2023-01-31T02:21:41.831Z,97510.28
2023-01-31T02:24:08.475Z,97517.47
2023-01-31T02:26:35.206Z,97519.53
2023-01-31T02:29:01.865Z,97497.75
2023-01-31T02:31:28.593Z,97504.66
2023-01-31T02:33:55.252Z,97525.16
2023-01-31T02:36:22.225Z,97508.38
2023-01-31T02:38:48.926Z,97515.00
2023-01-31T02:41:15.614Z,97528.34
2023-01-31T02:43:42.248Z,97517.59
2023-01-31T02:46:08.919Z,97520.75
2023-01-31T02:48:35.634Z,97522.59
2023-01-31T02:51:02.251Z,97525.25
2023-01-31T02:53:28.908Z,97521.13
2023-01-31T02:55:55.572Z,97504.34
2023-01-31T02:58:22.286Z,97523.53
2023-01-31T03:00:48.924Z,97510.66
2023-01-31T03:03:15.662Z,97519.38
2023-01-31T03:05:42.346Z,97514.47
2023-01-31T03:08:09.002Z,97514.53
2023-01-31T03:10:35.613Z,97509.81
2023-01-31T03:13:02.357Z,97519.13
2023-01-31T03:15:28.988Z,97516.84
2023-01-31T03:17:55.667Z,97525.81
2023-01-31T03:20:22.344Z,97527.22
2023-01-31T03:22:48.967Z,97536.84
2023-01-31T03:25:15.660Z,97548.09
2023-01-31T03:27:42.283Z,97542.06
2023-01-31T03:30:09.980Z,97545.00
2023-01-31T03:32:36.663Z,97549.31
2023-01-31T03:35:03.295Z,97553.09
2023-01-31T03:37:29.932Z,97558.09
2023-01-31T03:39:56.630Z,97547.97
2023-01-31T03:42:23.232Z,97561.06
2023-01-31T03:44:49.861Z,97545.88
2023-01-31T03:47:16.778Z,97543.31
2023-01-31T03:49:43.420Z,97535.41
2023-01-31T03:52:10.035Z,97536.63
2023-01-31T03:54:36.659Z,97545.00
2023-01-31T03:57:03.291Z,97548.41
2023-01-31T03:59:29.919Z,97550.75
2023-01-31T04:01:56.682Z,97538.06
2023-01-31T04:04:23.327Z,97553.00
2023-01-31T04:06:49.998Z,97545.19
2023-01-31T04:09:16.658Z,97557.38
2023-01-31T04:11:43.297Z,97553.41
2023-01-31T04:14:09.913Z,97548.72
2023-01-31T04:16:36.840Z,97558.16
2023-01-31T04:19:03.535Z,97558.47
2023-01-31T04:21:30.327Z,97560.88
2023-01-31T04:23:57.004Z,97559.06
2023-01-31T04:26:23.711Z,97569.94
2023-01-31T04:28:50.426Z,97577.63
2023-01-31T04:31:17.166Z,97573.84
2023-01-31T04:33:43.877Z,97584.66
2023-01-31T04:36:10.520Z,97573.75
2023-01-31T04:38:37.168Z,97572.44
2023-01-31T04:41:03.833Z,97571.81
2023-01-31T04:43:30.467Z,97567.91
2023-01-31T04:45:57.104Z,97562.13
2023-01-31T04:48:23.780Z,97580.19
2023-01-31T04:50:50.485Z,97573.84
2023-01-31T04:53:17.166Z,97572.06
2023-01-31T04:55:43.849Z,97573.84
2023-01-31T04:58:10.476Z,97579.25
2023-01-31T05:00:37.106Z,97565.13
2023-01-31T05:03:03.915Z,97566.25
2023-01-31T05:05:30.601Z,97569.22
2023-01-31T05:07:57.264Z,97569.31
2023-01-31T05:10:23.936Z,97575.25
2023-01-31T05:12:50.588Z,97575.16
2023-01-31T05:15:17.274Z,97566.78
2023-01-31T05:17:43.993Z,97561.34
2023-01-31T05:20:10.675Z,97568.94
2023-01-31T05:22:37.294Z,97578.91
2023-01-31T05:25:03.980Z,97586.13
2023-01-31T05:27:30.582Z,97565.22
2023-01-31T05:29:57.840Z,97575.47
2023-01-31T05:32:24.516Z,97577.88
2023-01-31T05:34:51.150Z,97578.09
2023-01-31T05:37:17.764Z,97576.53
2023-01-31T05:39:44.411Z,97587.31
2023-01-31T05:42:11.120Z,97578.19
2023-01-31T05:44:37.730Z,97585.19
2023-01-31T05:47:04.418Z,97588.53
2023-01-31T05:49:31.130Z,97583.75
2023-01-31T05:51:57.767Z,97584.47
2023-01-31T05:54:24.490Z,97589.53
2023-01-31T05:56:51.179Z,97591.97
2023-01-31T05:59:17.793Z,97595.22
2023-01-31T06:01:44.518Z,97581.81
2023-01-31T06:04:11.187Z,97588.69
2023-01-31T06:06:37.816Z,97583.78
2023-01-31T06:09:04.578Z,97598.44
2023-01-31T06:11:31.233Z,97580.19
2023-01-31T06:13:58.557Z,97584.63
2023-01-31T06:16:25.324Z,97580.91
2023-01-31T06:18:52.020Z,97575.41
2023-01-31T06:21:18.653Z,97578.53
2023-01-31T06:23:45.308Z,97578.00
2023-01-31T06:26:12.151Z,97570.56
2023-01-31T06:28:38.894Z,97580.63
2023-01-31T06:31:06.003Z,97581.97
2023-01-31T06:33:44.773Z,97573.16
2023-01-31T06:36:13.353Z,97590.47
2023-01-31T06:38:40.104Z,97596.63
2023-01-31T06:41:06.801Z,97602.09
2023-01-31T06:43:33.428Z,97599.91
2023-01-31T06:46:00.147Z,97607.13
2023-01-31T06:48:26.849Z,97611.09
2023-01-31T06:50:53.483Z,97607.28
2023-01-31T06:53:20.163Z,97607.34
2023-01-31T06:55:46.811Z,97605.22
2023-01-31T06:58:13.461Z,97603.75
2023-01-31T07:00:40.230Z,97611.44
2023-01-31T07:03:06.907Z,97605.31
2023-01-31T07:05:33.676Z,97600.50
2023-01-31T07:08:00.345Z,97602.31
2023-01-31T07:10:26.979Z,97609.44
2023-01-31T07:12:53.605Z,97610.19
2023-01-31T07:15:20.466Z,97612.84
2023-01-31T07:17:47.354Z,97610.44
2023-01-31T07:20:14.018Z,97614.78
2023-01-31T07:22:40.667Z,97616.47
2023-01-31T07:25:07.295Z,97611.56
2023-01-31T07:27:34.095Z,97606.13
2023-01-31T07:30:00.743Z,97611.44
2023-01-31T07:32:27.352Z,97621.44
2023-01-31T07:34:54.014Z,97623.53
2023-01-31T07:37:20.626Z,97623.66
2023-01-31T07:39:47.220Z,97627.16
2023-01-31T07:42:13.887Z,97625.91
2023-01-31T07:44:40.632Z,97634.25
2023-01-31T07:47:07.365Z,97624.69
2023-01-31T07:49:34.042Z,97637.25
2023-01-31T07:52:00.694Z,97645.97
2023-01-31T07:54:27.288Z,97647.88
2023-01-31T07:56:53.936Z,97656.25
2023-01-31T07:59:20.537Z,97646.28
2023-01-31T08:01:49.568Z,97663.16
2023-01-31T08:04:22.311Z,97666.47
2023-01-31T08:06:49.360Z,97656.72
2023-01-31T08:09:16.065Z,97666.56
2023-01-31T08:11:42.763Z,97657.38
2023-01-31T08:14:09.493Z,97664.84
2023-01-31T08:16:36.240Z,97673.50
2023-01-31T08:19:02.901Z,97662.78
2023-01-31T08:21:29.551Z,97679.50
2023-01-31T08:23:56.250Z,97680.56
2023-01-31T08:26:22.934Z,97688.53
2023-01-31T08:28:49.577Z,97681.06
2023-01-31T08:31:16.319Z,97674.91
2023-01-31T08:33:43.442Z,97690.59
2023-01-31T08:36:10.133Z,97696.44
2023-01-31T08:38:36.806Z,97693.88
2023-01-31T08:41:03.413Z,97692.00
2023-01-31T08:43:30.223Z,97698.47
2023-01-31T08:45:57.087Z,97691.63
2023-01-31T08:48:23.817Z,97701.00
2023-01-31T08:50:50.463Z,97693.66
2023-01-31T08:53:17.118Z,97705.59
2023-01-31T08:55:43.785Z,97702.00
2023-01-31T08:58:10.476Z,97702.66
2023-01-31T09:00:37.131Z,97711.66
2023-01-31T09:03:03.853Z,97703.00
2023-01-31T09:05:31.116Z,97722.59
2023-01-31T09:07:57.853Z,97725.19
2023-01-31T09:10:24.540Z,97714.59
2023-01-31T09:12:51.217Z,97717.19
2023-01-31T09:15:17.926Z,97735.22
2023-01-31T09:17:44.595Z,97730.81
2023-01-31T09:20:11.246Z,97723.59
2023-01-31T09:22:38.392Z,97722.78
2023-01-31T09:25:05.224Z,97735.25
2023-01-31T09:27:32.218Z,97734.69
2023-01-31T09:29:59.046Z,97740.16
2023-01-31T09:32:25.756Z,97748.69
2023-01-31T09:34:52.732Z,97738.50
2023-01-31T09:37:19.365Z,97732.59
2023-01-31T09:39:46.041Z,97732.09
2023-01-31T09:42:12.721Z,97725.22
2023-01-31T09:44:39.344Z,97724.69
2023-01-31T09:47:06.066Z,97716.41
2023-01-31T09:49:33.140Z,97728.56
2023-01-31T09:52:00.104Z,97726.94
2023-01-31T09:54:26.788Z,97732.59
2023-01-31T09:56:53.419Z,97732.28
2023-01-31T09:59:20.069Z,97731.81
2023-01-31T10:01:46.758Z,97732.59
2023-01-31T10:04:13.522Z,97736.88
2023-01-31T10:06:40.274Z,97739.94
2023-01-31T10:09:06.985Z,97743.31
2023-01-31T10:11:34.202Z,97740.03
2023-01-31T10:14:02.094Z,97739.72
2023-01-31T10:16:29.183Z,97732.72
2023-01-31T10:18:55.834Z,97738.13
2023-01-31T10:21:22.424Z,97740.34
2023-01-31T10:23:49.053Z,97742.34
2023-01-31T10:26:15.763Z,97742.44
2023-01-31T10:28:42.375Z,97741.16
2023-01-31T10:31:09.061Z,97738.03
2023-01-31T10:33:35.682Z,97740.31
2023-01-31T10:36:02.362Z,97736.38
2023-01-31T10:38:29.013Z,97720.53
2023-01-31T10:40:55.683Z,97727.31
2023-01-31T10:43:22.266Z,97726.25
2023-01-31T10:45:49.044Z,97721.06
2023-01-31T10:48:15.694Z,97720.81
2023-01-31T10:50:42.383Z,97714.13
2023-01-31T10:53:09.047Z,97717.91
2023-01-31T10:55:36.170Z,97723.94
2023-01-31T10:58:02.865Z,97707.91
2023-01-31T11:00:29.488Z,97716.94
2023-01-31T11:02:56.087Z,97712.34
2023-01-31T11:05:22.726Z,97716.16
2023-01-31T11:07:49.323Z,97708.63
2023-01-31T11:10:15.953Z,97708.19
2023-01-31T11:12:42.573Z,97708.00
2023-01-31T11:15:09.232Z,97693.38
2023-01-31T11:17:35.864Z,97693.84
2023-01-31T11:20:02.483Z,97697.56
2023-01-31T11:22:29.213Z,97683.81
2023-01-31T11:24:55.889Z,97678.16
2023-01-31T11:27:22.598Z,97675.56
2023-01-31T11:29:49.215Z,97672.47
2023-01-31T11:32:15.861Z,97674.53
2023-01-31T11:34:42.533Z,97679.81
2023-01-31T11:37:09.263Z,97678.81
2023-01-31T11:39:35.917Z,97670.44
2023-01-31T11:42:02.547Z,97676.78
2023-01-31T11:44:29.280Z,97681.41
2023-01-31T11:46:55.907Z,97675.19
2023-01-31T11:49:22.582Z,97678.75
2023-01-31T11:51:49.237Z,97672.56
2023-01-31T11:54:15.889Z,97669.50
2023-01-31T11:56:42.575Z,97661.56
2023-01-31T11:59:09.223Z,97676.50
2023-01-31T12:01:36.108Z,97669.88
2023-01-31T12:04:04.393Z,97674.19
2023-01-31T12:06:31.267Z,97663.69
2023-01-31T12:08:57.872Z,97670.75
2023-01-31T12:11:24.574Z,97677.94
2023-01-31T12:13:51.267Z,97667.63
2023-01-31T12:16:18.119Z,97669.06
2023-01-31T12:18:44.758Z,97670.75
2023-01-31T12:21:11.487Z,97671.13
2023-01-31T12:23:38.192Z,97671.75
2023-01-31T12:26:04.885Z,97665.91
2023-01-31T12:28:31.586Z,97668.78
2023-01-31T12:30:58.385Z,97669.34
2023-01-31T12:33:25.149Z,97658.72
2023-01-31T12:35:51.854Z,97662.13
2023-01-31T12:38:18.554Z,97665.13
2023-01-31T12:40:45.347Z,97662.91
2023-01-31T12:43:11.980Z,97658.75
2023-01-31T12:45:38.660Z,97658.69
2023-01-31T12:48:05.384Z,97661.31
2023-01-31T12:50:32.179Z,97644.53
2023-01-31T12:52:58.871Z,97655.97
2023-01-31T12:55:25.562Z,97645.94
2023-01-31T12:57:52.368Z,97655.09
2023-01-31T13:00:19.054Z,97654.56
2023-01-31T13:02:45.698Z,97646.38
2023-01-31T13:05:12.507Z,97647.28
2023-01-31T13:07:39.205Z,97648.16
2023-01-31T13:10:05.941Z,97654.25
2023-01-31T13:12:32.628Z,97653.22
2023-01-31T13:14:59.259Z,97658.28
2023-01-31T13:17:25.905Z,97655.63
2023-01-31T13:19:52.551Z,97656.81
2023-01-31T13:22:19.207Z,97656.59
2023-01-31T13:24:45.883Z,97655.56
2023-01-31T13:27:12.579Z,97644.22
2023-01-31T13:29:39.417Z,97647.72
2023-01-31T13:32:06.112Z,97647.53
2023-01-31T13:34:32.810Z,97652.63
2023-01-31T13:36:59.487Z,97645.50
2023-01-31T13:39:26.156Z,97639.88
2023-01-31T13:41:52.781Z,97636.34
2023-01-31T13:44:19.512Z,97639.06
2023-01-31T13:46:46.220Z,97642.59
2023-01-31T13:49:12.893Z,97639.75
2023-01-31T13:51:39.581Z,97650.75
2023-01-31T13:54:06.265Z,97650.19
2023-01-31T13:56:33.091Z,97635.06
2023-01-31T13:58:59.713Z,97645.63
2023-01-31T14:01:26.406Z,97634.09
2023-01-31T14:03:53.143Z,97635.16
2023-01-31T14:06:19.803Z,97633.50
2023-01-31T14:08:46.457Z,97631.19
2023-01-31T14:11:13.182Z,97636.94
2023-01-31T14:13:39.892Z,97644.41
2023-01-31T14:16:06.672Z,97643.66
2023-01-31T14:18:33.331Z,97641.13
2023-01-31T14:20:59.935Z,97636.00
2023-01-31T14:23:26.595Z,97645.47
2023-01-31T14:25:53.238Z,97634.91
2023-01-31T14:28:19.935Z,97642.19
2023-01-31T14:30:46.613Z,97643.00
2023-01-31T14:33:13.513Z,97633.06
2023-01-31T14:35:40.257Z,97640.47
2023-01-31T14:38:06.891Z,97641.63
2023-01-31T14:40:33.598Z,97639.06
2023-01-31T14:43:00.302Z,97645.16
2023-01-31T14:45:27.045Z,97641.63
2023-01-31T14:47:53.718Z,97648.03
2023-01-31T14:50:23.034Z,97624.25
2023-01-31T14:52:49.914Z,97631.22
2023-01-31T14:55:16.742Z,97633.56
2023-01-31T14:57:43.428Z,97638.47
2023-01-31T15:00:10.067Z,97634.78
2023-01-31T15:02:36.821Z,97631.09
2023-01-31T15:05:03.570Z,97629.00
2023-01-31T15:07:30.215Z,97627.00
2023-01-31T15:09:56.848Z,97629.75
2023-01-31T15:12:23.522Z,97632.56
2023-01-31T15:14:50.178Z,97626.13
2023-01-31T15:17:33.087Z,97616.63
2023-01-31T15:20:01.732Z,97624.72
2023-01-31T15:22:28.573Z,97627.69
2023-01-31T15:24:55.226Z,97627.97
2023-01-31T15:27:21.899Z,97619.38
2023-01-31T15:29:50.100Z,97633.56
2023-01-31T15:32:16.803Z,97629.34
2023-01-31T15:34:43.418Z,97632.28
2023-01-31T15:37:10.092Z,97636.09
2023-01-31T15:39:36.798Z,97627.50
2023-01-31T15:42:03.467Z,97633.88
2023-01-31T15:44:30.110Z,97632.72
2023-01-31T15:46:56.814Z,97637.16
2023-01-31T15:49:37.973Z,97630.28
2023-01-31T15:52:04.981Z,97628.56
2023-01-31T15:54:31.633Z,97629.66
2023-01-31T15:56:58.271Z,97629.09
2023-01-31T15:59:24.868Z,97628.03
2023-01-31T16:01:51.564Z,97622.84
2023-01-31T16:04:18.384Z,97623.25
2023-01-31T16:06:45.128Z,97613.94
2023-01-31T16:09:11.933Z,97622.00
2023-01-31T16:11:38.566Z,97620.88
2023-01-31T16:14:05.289Z,97632.44
2023-01-31T16:16:32.051Z,97643.63
2023-01-31T16:18:58.727Z,97638.44
2023-01-31T16:21:25.359Z,97627.28
2023-01-31T16:23:52.567Z,97635.34
2023-01-31T16:26:19.263Z,97639.44
2023-01-31T16:28:45.975Z,97640.97
2023-01-31T16:31:12.812Z,97637.03
2023-01-31T16:33:39.602Z,97631.38
2023-01-31T16:36:13.649Z,97632.84
2023-01-31T16:38:40.573Z,97629.00
2023-01-31T16:41:07.211Z,97620.44
2023-01-31T16:43:33.887Z,97637.03
2023-01-31T16:46:00.596Z,97632.44
2023-01-31T16:48:27.247Z,97642.88
2023-01-31T16:50:53.923Z,97619.88
2023-01-31T16:53:20.586Z,97634.19
2023-01-31T16:55:47.248Z,97637.97
2023-01-31T16:58:13.857Z,97645.84
2023-01-31T17:00:40.476Z,97640.44
2023-01-31T17:03:07.168Z,97632.44
2023-01-31T17:05:33.928Z,97648.00
2023-01-31T17:08:00.643Z,97643.25
2023-01-31T17:10:27.320Z,97638.78
2023-01-31T17:12:54.201Z,97639.63
2023-01-31T17:15:21.061Z,97642.53
2023-01-31T17:17:47.852Z,97631.25
2023-01-31T17:20:14.477Z,97640.53
2023-01-31T17:22:42.263Z,97640.84
2023-01-31T17:25:10.492Z,97648.84
2023-01-31T17:27:37.116Z,97646.44
2023-01-31T17:30:03.724Z,97647.56
2023-01-31T17:32:32.300Z,97636.75
2023-01-31T17:34:59.682Z,97624.97
2023-01-31T17:37:31.663Z,97638.16
2023-01-31T17:39:58.842Z,97643.41
2023-01-31T17:42:25.454Z,97636.88
2023-01-31T17:44:52.125Z,97618.38
2023-01-31T17:47:18.802Z,97626.56
2023-01-31T17:49:45.577Z,97629.56
2023-01-31T17:52:12.278Z,97622.47
2023-01-31T17:54:38.884Z,97636.06
2023-01-31T17:57:05.558Z,97631.50
2023-01-31T17:59:32.188Z,97634.19
2023-01-31T18:01:59.018Z,97626.22
2023-01-31T18:04:25.677Z,97608.56
2023-01-31T18:06:52.324Z,97591.69
2023-01-31T18:09:18.956Z,97616.91
2023-01-31T18:11:45.613Z,97608.19
2023-01-31T18:14:12.311Z,97609.28
2023-01-31T18:16:38.945Z,97602.09
2023-01-31T18:19:05.614Z,97607.44
2023-01-31T18:21:32.296Z,97611.94
2023-01-31T18:23:58.966Z,97610.88
2023-01-31T18:26:25.761Z,97612.16
2023-01-31T18:28:52.517Z,97633.91
2023-01-31T18:31:19.255Z,97621.59
2023-01-31T18:33:45.987Z,97622.03
2023-01-31T18:36:12.614Z,97637.81
2023-01-31T18:38:39.274Z,97660.69
2023-01-31T18:41:05.957Z,97650.34
2023-01-31T18:43:32.624Z,97619.19
2023-01-31T18:45:59.286Z,97636.38
2023-01-31T18:48:25.968Z,97645.41
2023-01-31T18:50:52.709Z,97627.19
2023-01-31T18:53:19.448Z,97646.97
2023-01-31T18:55:46.115Z,97637.72
2023-01-31T18:58:12.856Z,97653.22
2023-01-31T19:00:39.617Z,97627.16
2023-01-31T19:03:06.313Z,97639.63
2023-01-31T19:05:32.951Z,97615.53
2023-01-31T19:07:59.592Z,97629.91
2023-01-31T19:10:26.275Z,97624.50
2023-01-31T19:12:52.873Z,97616.50
2023-01-31T19:15:19.889Z,97624.53
2023-01-31T19:17:46.920Z,97628.28
2023-01-31T19:20:13.619Z,97609.16
2023-01-31T19:22:40.220Z,97600.72
2023-01-31T19:25:06.951Z,97608.28
2023-01-31T19:27:33.625Z,97618.16
2023-01-31T19:30:00.310Z,97605.13
2023-01-31T19:32:26.999Z,97609.91
2023-01-31T19:34:54.196Z,97608.38
2023-01-31T19:37:20.881Z,97598.97
2023-01-31T19:39:47.536Z,97602.59
2023-01-31T19:42:14.149Z,97599.09
2023-01-31T19:44:40.805Z,97595.03
2023-01-31T19:47:07.507Z,97598.63
2023-01-31T19:49:34.154Z,97581.78
2023-01-31T19:52:00.835Z,97586.50
2023-01-31T19:54:28.121Z,97587.78
2023-01-31T19:56:54.824Z,97586.38
2023-01-31T19:59:21.460Z,97587.59
2023-01-31T20:01:48.181Z,97591.25
2023-01-31T20:04:14.927Z,97612.16
2023-01-31T20:06:41.585Z,97602.63
2023-01-31T20:09:08.233Z,97615.81
2023-01-31T20:11:35.028Z,97597.59
2023-01-31T20:14:01.686Z,97603.16
2023-01-31T20:16:28.420Z,97602.41
2023-01-31T20:18:55.051Z,97586.91
2023-01-31T20:21:21.692Z,97593.94
2023-01-31T20:23:48.370Z,97583.94
2023-01-31T20:26:15.082Z,97584.88
2023-01-31T20:28:41.728Z,97604.69
2023-01-31T20:31:08.483Z,97590.09
2023-01-31T20:33:35.201Z,97592.53
2023-01-31T20:36:01.848Z,97599.22
2023-01-31T20:38:28.502Z,97575.19
2023-01-31T20:40:55.201Z,97596.53
2023-01-31T20:43:21.876Z,97609.66
2023-01-31T20:45:48.573Z,97590.78
2023-01-31T20:48:15.234Z,97599.00
2023-01-31T20:50:41.898Z,97611.75
2023-01-31T20:53:08.598Z,97605.66
2023-01-31T20:55:35.284Z,97610.06
2023-01-31T20:58:01.967Z,97598.03
2023-01-31T21:00:28.657Z,97596.25
2023-01-31T21:02:55.301Z,97595.00
2023-01-31T21:05:21.960Z,97593.06
2023-01-31T21:07:50.646Z,97596.78
2023-01-31T21:10:17.375Z,97580.06
2023-01-31T21:12:44.044Z,97612.38
2023-01-31T21:15:10.682Z,97591.69
2023-01-31T21:17:40.424Z,97607.66
2023-01-31T21:20:07.297Z,97591.75
2023-01-31T21:22:33.929Z,97580.53
2023-01-31T21:25:00.538Z,97589.13
2023-01-31T21:27:27.365Z,97585.03
2023-01-31T21:29:54.084Z,97579.69
2023-01-31T21:32:20.803Z,97585.84
2023-01-31T21:34:47.433Z,97585.31
2023-01-31T21:37:14.060Z,97588.44
2023-01-31T21:39:40.753Z,97593.22
2023-01-31T21:42:07.388Z,97598.44
2023-01-31T21:44:34.013Z,97598.31
2023-01-31T21:47:00.714Z,97600.34
2023-01-31T21:49:27.360Z,97604.31
2023-01-31T21:51:54.040Z,97604.31
2023-01-31T21:54:20.777Z,97593.41
2023-01-31T21:56:47.474Z,97610.91
2023-01-31T21:59:14.124Z,97615.59
2023-01-31T22:01:40.767Z,97623.75
2023-01-31T22:04:07.511Z,97631.38
2023-01-31T22:06:34.152Z,97605.88
2023-01-31T22:09:00.850Z,97614.97
2023-01-31T22:11:27.507Z,97616.16
2023-01-31T22:13:55.935Z,97615.81
2023-01-31T22:16:22.976Z,97608.91
2023-01-31T22:18:49.686Z,97602.19
2023-01-31T22:21:16.371Z,97605.06
2023-01-31T22:23:43.016Z,97604.06
2023-01-31T22:26:09.756Z,97605.88
2023-01-31T22:28:36.390Z,97599.03
2023-01-31T22:31:03.116Z,97605.13
2023-01-31T22:33:29.891Z,97607.66
2023-01-31T22:35:56.495Z,97597.06
2023-01-31T22:38:23.135Z,97601.16
2023-01-31T22:40:49.806Z,97591.41
2023-01-31T22:43:16.451Z,97592.06
2023-01-31T22:45:43.174Z,97597.25
2023-01-31T22:48:09.793Z,97590.63
2023-01-31T22:50:36.444Z,97600.00
2023-01-31T22:53:03.059Z,97595.72
2023-01-31T22:55:29.746Z,97590.81
2023-01-31T22:57:56.401Z,97587.56
2023-01-31T23:00:23.322Z,97580.38
2023-01-31T23:02:50.113Z,97572.53
2023-01-31T23:05:16.794Z,97564.28
2023-01-31T23:07:43.473Z,97567.25
2023-01-31T23:10:10.080Z,97557.47
2023-01-31T23:12:36.753Z,97563.34
2023-01-31T23:15:03.411Z,97549.47
2023-01-31T23:17:30.046Z,97554.28
2023-01-31T23:19:56.703Z,97546.34
2023-01-31T23:22:23.297Z,97553.59
2023-01-31T23:24:49.963Z,97555.81
2023-01-31T23:27:16.614Z,97562.09
2023-01-31T23:29:43.228Z,97558.69
2023-01-31T23:32:09.871Z,97555.75
2023-01-31T23:34:36.470Z,97548.69
2023-01-31T23:37:03.325Z,97556.72
2023-01-31T23:39:30.072Z,97553.59
2023-01-31T23:41:56.767Z,97547.25
2023-01-31T23:44:23.421Z,97550.53
2023-01-31T23:46:50.204Z,97542.88
2023-01-31T23:49:16.931Z,97568.75
2023-01-31T23:51:43.538Z,97559.91
2023-01-31T23:54:10.285Z,97563.75
2023-01-31T23:56:36.951Z,97536.69
2023-01-31T23:59:03.597Z,97550.94
